Ana Sayfa
METAR-TAF:

METAR-TAF

Havaalanları :

Belgrad, Sırbistan

Belgrad Nikola Tesla Havalimanı

Enlem: 44-49N, Boylam: 020-17E, yükseklik: 96 m

Güncel hava durumu gözlemi

Rapor saat 19:00 UTC de 34 dakika önce yapıldı.
Rüzgar güneydan 8 kt
Sıcaklık 3°C
Nem 60%
Basınç 1011 hPa
Görüş mesafesi 10 km veya daha fazla
1500 m altında bulut yok ve kümülonimbus yok

METAR: LYBE 181900Z 17008KT CAVOK 03/M04 Q1011 NOSIG

Saat: 20:34 (19:34 UTC)

Tahmin

Rapor saat 17:55 UTC de 1 saat ve 39 dakika önce yapıldı.
Ayın 18'si saat 18 UTC'den ayın 19'si saat 18 UTC'ye kadar geçerli Tahmin
Rüzgar güney/güneydoğudan 8 kt
Görüş mesafesi 10 km veya daha fazla
4000 ft yükseklikte parçalı bulutlu
Dönüşüyor
ayın 19'si saat 12 UTC'den ayın 19'si saat 14 UTC'ye kadar
Rüzgar kuzey/kuzeydoğudan 10 kt
Görüş mesafesi: 5000 m
yağmur

TAF: LYBE 181755Z 1818/1918 16008KT 9999 SCT040 TX08/1913Z TN02/1906Z BECMG 1912/1914 02010KT 5000 RA

4.000'den fazla havaalanı için hava durumu gözlemleri ve tahminleri (METAR ve TAF raporları).

Kullanılabilir istasyonlar harita üzerinde sarı ve kırmızı noktalarla gösterilir.

İstasyonun adını görmek için fareyi noktanın üzerinde gezdirin.

Sonrasında hava gözlem ve tahminlerini görmek için tıklayın.

Haritayı değiştirmek için: yaklaştırmak için siyah artı işaretli yeşil düğmeye ve uzaklaştırmak için de eksi işaretli düğmeye hızla tıklayın; bitişik haritalar için yeşil okları kullanın.


METAR-TAF: